createdAt,value
2023-02-18T00:01:26.922Z,11.73
2023-02-18T00:03:53.754Z,11.76
2023-02-18T00:06:22.191Z,11.72
2023-02-18T00:08:49.686Z,11.55
2023-02-18T00:11:18.056Z,11.59
2023-02-18T00:13:51.352Z,11.47
2023-02-18T00:16:18.147Z,11.35
2023-02-18T00:18:44.910Z,11.37
2023-02-18T00:21:11.789Z,11.43
2023-02-18T00:23:38.610Z,11.45
2023-02-18T00:26:11.274Z,11.37
2023-02-18T00:28:39.436Z,11.18
2023-02-18T00:31:12.578Z,11.12
2023-02-18T00:33:39.861Z,11.10
2023-02-18T00:36:10.805Z,10.92
2023-02-18T00:38:37.832Z,10.84
2023-02-18T00:41:05.077Z,10.78
2023-02-18T00:43:31.847Z,10.91
2023-02-18T00:45:58.673Z,10.88
2023-02-18T00:48:25.586Z,10.92
2023-02-18T00:50:52.385Z,11.07
2023-02-18T00:53:19.313Z,11.06
2023-02-18T00:55:48.047Z,10.70
2023-02-18T00:58:15.669Z,10.73
2023-02-18T01:00:43.209Z,10.67
2023-02-18T01:03:10.461Z,10.61
2023-02-18T01:05:38.209Z,10.49
2023-02-18T01:08:07.997Z,10.55
2023-02-18T01:10:36.565Z,10.47
2023-02-18T01:13:04.887Z,10.55
2023-02-18T01:15:32.174Z,10.57
2023-02-18T01:17:58.928Z,10.66
2023-02-18T01:20:25.870Z,10.58
2023-02-18T01:22:52.933Z,10.50
2023-02-18T01:25:21.507Z,10.62
2023-02-18T01:27:48.374Z,10.61
2023-02-18T01:30:17.636Z,10.57
2023-02-18T01:32:45.231Z,10.61
2023-02-18T01:35:15.385Z,10.45
2023-02-18T01:37:42.355Z,10.37
2023-02-18T01:40:12.477Z,10.21
2023-02-18T01:42:39.276Z,10.21
2023-02-18T01:45:33.961Z,10.08
2023-02-18T01:48:21.836Z,10.12
2023-02-18T01:50:56.662Z,10.11
2023-02-18T01:53:33.398Z,10.05
2023-02-18T01:56:04.267Z,10.00
2023-02-18T01:58:32.147Z,9.87
2023-02-18T02:00:58.902Z,9.88
2023-02-18T02:03:25.806Z,9.91
2023-02-18T02:05:52.577Z,9.94
2023-02-18T02:08:19.412Z,10.01
2023-02-18T02:10:58.710Z,9.95
2023-02-18T02:13:34.393Z,9.99
2023-02-18T02:16:21.235Z,10.01
2023-02-18T02:19:03.462Z,9.91
2023-02-18T02:21:41.199Z,9.85
2023-02-18T02:24:37.018Z,9.80
2023-02-18T02:27:23.183Z,9.90
2023-02-18T02:30:13.520Z,9.84
2023-02-18T02:32:46.172Z,9.82
2023-02-18T02:35:24.638Z,9.77
2023-02-18T02:38:19.668Z,9.86
2023-02-18T02:40:57.541Z,9.77
2023-02-18T02:43:55.605Z,9.51
2023-02-18T02:46:47.065Z,9.57
2023-02-18T02:49:37.768Z,9.68
2023-02-18T02:52:26.282Z,9.70
2023-02-18T02:54:53.127Z,9.81
2023-02-18T02:57:19.882Z,9.77
2023-02-18T03:00:16.787Z,9.74
2023-02-18T03:02:59.070Z,9.60
2023-02-18T03:05:49.650Z,9.58
2023-02-18T03:08:43.330Z,9.64
2023-02-18T03:11:13.568Z,9.57
2023-02-18T03:14:05.082Z,9.66
2023-02-18T03:17:14.179Z,9.53
2023-02-18T03:19:50.065Z,9.48
2023-02-18T03:22:22.018Z,9.40
2023-02-18T03:24:50.559Z,9.55
2023-02-18T03:27:25.335Z,9.51
2023-02-18T03:30:11.348Z,9.49
2023-02-18T03:32:38.161Z,9.48
2023-02-18T03:35:11.294Z,9.58
2023-02-18T03:37:45.707Z,9.56
2023-02-18T03:40:12.969Z,9.52
2023-02-18T03:42:39.795Z,9.52
2023-02-18T03:45:07.539Z,9.58
2023-02-18T03:47:34.604Z,9.64
2023-02-18T03:50:01.433Z,9.58
2023-02-18T03:52:28.263Z,9.63
2023-02-18T03:54:55.265Z,9.63
2023-02-18T03:57:22.048Z,9.61
2023-02-18T03:59:48.855Z,9.61
2023-02-18T04:02:15.661Z,9.49
2023-02-18T04:04:42.433Z,9.35
2023-02-18T04:07:09.277Z,9.35
2023-02-18T04:09:36.125Z,9.33
2023-02-18T04:12:03.018Z,9.26
2023-02-18T04:14:29.853Z,9.31
2023-02-18T04:16:56.603Z,9.20
2023-02-18T04:19:23.382Z,9.12
2023-02-18T04:21:50.190Z,9.00
2023-02-18T04:24:17.015Z,8.86
2023-02-18T04:26:43.727Z,8.97
2023-02-18T04:29:10.573Z,8.94
2023-02-18T04:31:37.686Z,8.98
2023-02-18T04:34:04.940Z,8.83
2023-02-18T04:36:31.707Z,8.88
2023-02-18T04:38:59.315Z,8.80
2023-02-18T04:41:26.145Z,8.76
2023-02-18T04:43:52.908Z,8.87
2023-02-18T04:46:19.716Z,8.89
2023-02-18T04:48:46.453Z,8.94
2023-02-18T04:51:13.256Z,8.84
2023-02-18T04:53:39.922Z,8.75
2023-02-18T04:56:07.045Z,8.77
2023-02-18T04:58:33.950Z,8.78
2023-02-18T05:01:02.417Z,8.85
2023-02-18T05:03:29.397Z,8.72
2023-02-18T05:05:56.268Z,8.76
2023-02-18T05:08:23.230Z,8.61
2023-02-18T05:10:50.036Z,8.83
2023-02-18T05:13:16.900Z,8.82
2023-02-18T05:15:43.943Z,8.83
2023-02-18T05:18:10.749Z,8.93
2023-02-18T05:20:37.505Z,9.00
2023-02-18T05:23:04.286Z,9.11
2023-02-18T05:25:31.226Z,8.96
2023-02-18T05:27:58.139Z,9.11
2023-02-18T05:30:24.911Z,9.11
2023-02-18T05:32:51.703Z,9.15
2023-02-18T05:35:18.580Z,9.13
2023-02-18T05:37:45.315Z,9.09
2023-02-18T05:40:12.273Z,9.07
2023-02-18T05:42:39.096Z,9.02
2023-02-18T05:45:06.119Z,9.08
2023-02-18T05:47:32.919Z,9.02
2023-02-18T05:49:59.867Z,9.03
2023-02-18T05:52:26.698Z,9.04
2023-02-18T05:54:53.550Z,8.99
2023-02-18T05:57:20.414Z,8.86
2023-02-18T05:59:47.241Z,8.72
2023-02-18T06:02:14.024Z,8.80
2023-02-18T06:04:40.767Z,8.67
2023-02-18T06:07:07.596Z,8.59
2023-02-18T06:09:34.364Z,8.72
2023-02-18T06:12:01.092Z,8.58
2023-02-18T06:14:28.019Z,8.61
2023-02-18T06:16:54.924Z,8.55
2023-02-18T06:19:21.694Z,8.54
2023-02-18T06:21:48.453Z,8.52
2023-02-18T06:24:15.286Z,8.50
2023-02-18T06:26:42.114Z,8.47
2023-02-18T06:29:08.890Z,8.48
2023-02-18T06:31:35.756Z,8.42
2023-02-18T06:34:02.784Z,8.18
2023-02-18T06:36:29.488Z,8.23
2023-02-18T06:38:57.590Z,7.95
2023-02-18T06:41:24.518Z,7.82
2023-02-18T06:43:51.839Z,7.86
2023-02-18T06:46:18.634Z,7.71
2023-02-18T06:48:47.916Z,7.67
2023-02-18T06:51:16.204Z,7.70
2023-02-18T06:53:43.936Z,7.71
2023-02-18T06:56:11.436Z,7.79
2023-02-18T06:58:38.774Z,8.09
2023-02-18T07:01:05.707Z,8.27
2023-02-18T07:03:32.532Z,8.33
2023-02-18T07:06:00.006Z,8.55
2023-02-18T07:08:26.850Z,8.54
2023-02-18T07:10:53.615Z,8.67
2023-02-18T07:13:20.414Z,8.78
2023-02-18T07:15:48.344Z,8.91
2023-02-18T07:18:17.976Z,8.91
2023-02-18T07:20:44.916Z,8.88
2023-02-18T07:23:12.850Z,8.75
2023-02-18T07:25:39.678Z,8.93
2023-02-18T07:28:06.428Z,9.03
2023-02-18T07:30:33.379Z,9.08
2023-02-18T07:33:01.860Z,8.84
2023-02-18T07:35:29.904Z,8.59
2023-02-18T07:37:58.001Z,8.74
2023-02-18T07:40:24.926Z,8.84
2023-02-18T07:42:51.710Z,9.04
2023-02-18T07:45:19.475Z,9.13
2023-02-18T07:47:46.226Z,9.28
2023-02-18T07:50:12.996Z,9.58
2023-02-18T07:52:39.724Z,9.79
2023-02-18T07:55:06.952Z,9.89
2023-02-18T07:57:33.704Z,10.31
2023-02-18T08:00:00.495Z,10.47
2023-02-18T08:02:27.316Z,10.31
2023-02-18T08:04:54.079Z,10.65
2023-02-18T08:07:22.980Z,10.81
2023-02-18T08:09:50.766Z,11.02
2023-02-18T08:12:17.854Z,11.00
2023-02-18T08:14:44.715Z,11.15
2023-02-18T08:17:11.471Z,11.25
2023-02-18T08:19:38.259Z,11.20
2023-02-18T08:22:05.300Z,11.24
2023-02-18T08:24:32.034Z,11.20
2023-02-18T08:27:09.526Z,10.96
2023-02-18T08:29:36.242Z,10.84
2023-02-18T08:32:03.148Z,10.87
2023-02-18T08:34:30.024Z,10.84
2023-02-18T08:36:56.878Z,11.12
2023-02-18T08:39:23.629Z,11.22
2023-02-18T08:41:50.456Z,11.38
2023-02-18T08:44:17.252Z,11.45
2023-02-18T08:46:44.210Z,11.40
2023-02-18T08:49:10.958Z,11.63
2023-02-18T08:51:37.737Z,11.82
2023-02-18T08:54:04.737Z,11.98
2023-02-18T08:56:32.636Z,12.07
2023-02-18T08:58:59.746Z,11.91
2023-02-18T09:01:26.872Z,12.11
2023-02-18T09:03:53.670Z,12.16
2023-02-18T09:06:20.448Z,12.25
2023-02-18T09:08:47.340Z,12.50
2023-02-18T09:11:14.979Z,12.62
2023-02-18T09:13:41.827Z,12.81
2023-02-18T09:16:12.681Z,13.05
2023-02-18T09:18:39.610Z,13.30
2023-02-18T09:21:09.504Z,13.49
2023-02-18T09:23:36.983Z,13.71
2023-02-18T09:26:08.997Z,13.76
2023-02-18T09:28:36.401Z,13.67
2023-02-18T09:31:08.722Z,13.61
2023-02-18T09:33:37.872Z,13.57
2023-02-18T09:36:05.142Z,13.68
2023-02-18T09:38:31.908Z,13.70
2023-02-18T09:41:01.430Z,13.72
2023-02-18T09:43:35.802Z,13.90
2023-02-18T09:46:04.692Z,14.05
2023-02-18T09:48:37.498Z,14.22
2023-02-18T09:51:04.537Z,14.24
2023-02-18T09:53:31.388Z,14.24
2023-02-18T09:55:58.840Z,14.30
2023-02-18T09:58:33.669Z,14.40
2023-02-18T10:01:10.949Z,14.50
2023-02-18T10:03:38.529Z,14.59
2023-02-18T10:06:10.860Z,14.49
2023-02-18T10:08:45.600Z,14.40
2023-02-18T10:11:23.376Z,14.52
2023-02-18T10:13:50.917Z,14.54
2023-02-18T10:16:19.771Z,14.64
2023-02-18T10:18:50.661Z,14.71
2023-02-18T10:21:25.018Z,14.83
2023-02-18T10:24:14.999Z,14.98
2023-02-18T10:26:42.424Z,15.18
2023-02-18T10:29:21.419Z,15.33
2023-02-18T10:31:59.944Z,15.39
2023-02-18T10:34:35.587Z,15.55
2023-02-18T10:37:35.271Z,15.71
2023-02-18T10:40:16.991Z,15.95
2023-02-18T10:43:07.748Z,16.12
2023-02-18T10:45:51.357Z,16.26
2023-02-18T10:49:01.177Z,16.45
2023-02-18T10:51:34.719Z,16.56
2023-02-18T10:54:02.124Z,16.73
2023-02-18T10:56:42.954Z,16.85
2023-02-18T10:59:33.596Z,16.99
2023-02-18T11:02:05.596Z,17.09
2023-02-18T11:04:37.988Z,17.19
2023-02-18T11:07:12.911Z,17.23
2023-02-18T11:09:45.701Z,17.34
2023-02-18T11:12:44.640Z,17.46
2023-02-18T11:15:14.187Z,17.57
2023-02-18T11:17:47.020Z,17.63
2023-02-18T11:20:29.749Z,17.74
2023-02-18T11:23:21.346Z,17.84
2023-02-18T11:26:07.849Z,17.87
2023-02-18T11:28:50.026Z,17.92
2023-02-18T11:31:19.871Z,18.00
2023-02-18T11:33:52.016Z,18.00
2023-02-18T11:36:18.811Z,17.99
2023-02-18T11:38:50.129Z,18.06
2023-02-18T11:41:39.805Z,18.11
2023-02-18T11:44:19.573Z,18.08
2023-02-18T11:47:00.464Z,18.08
2023-02-18T11:49:27.785Z,18.15
2023-02-18T11:51:54.555Z,18.18
2023-02-18T11:54:30.383Z,18.13
2023-02-18T11:57:10.702Z,18.11
2023-02-18T11:59:39.759Z,18.16
2023-02-18T12:02:22.725Z,18.13
2023-02-18T12:05:00.049Z,18.19
2023-02-18T12:07:49.874Z,18.26
2023-02-18T12:10:28.199Z,18.32
2023-02-18T12:12:59.776Z,18.32
2023-02-18T12:15:46.890Z,18.29
2023-02-18T12:18:28.846Z,18.21
2023-02-18T12:21:16.760Z,18.21
2023-02-18T12:24:05.230Z,18.22
2023-02-18T12:27:13.276Z,18.24
2023-02-18T12:30:12.865Z,18.29
2023-02-18T12:33:16.462Z,18.24
2023-02-18T12:36:08.166Z,18.36
2023-02-18T12:38:56.213Z,18.39
2023-02-18T12:41:22.898Z,18.37
2023-02-18T12:44:02.847Z,18.45
2023-02-18T12:46:49.145Z,18.46
2023-02-18T12:49:41.850Z,18.42
2023-02-18T12:52:47.677Z,18.46
2023-02-18T12:55:49.314Z,18.38
2023-02-18T12:58:21.873Z,18.34
2023-02-18T13:00:53.305Z,18.35
2023-02-18T13:03:58.304Z,18.46
2023-02-18T13:06:42.121Z,18.44
2023-02-18T13:09:21.062Z,18.41
2023-02-18T13:12:35.217Z,18.36
2023-02-18T13:15:17.838Z,18.29
2023-02-18T13:17:45.905Z,18.34
2023-02-18T13:20:29.616Z,18.35
2023-02-18T13:22:56.945Z,18.32
2023-02-18T13:25:24.710Z,18.22
2023-02-18T13:28:10.629Z,18.31
2023-02-18T13:30:48.288Z,18.42
2023-02-18T13:33:36.653Z,18.49
2023-02-18T13:36:14.575Z,18.50
2023-02-18T13:39:05.966Z,18.64
2023-02-18T13:41:41.664Z,18.68
2023-02-18T13:44:28.807Z,18.72
2023-02-18T13:46:57.969Z,18.67
2023-02-18T13:49:34.018Z,18.68
2023-02-18T13:52:03.250Z,18.71
2023-02-18T13:54:37.347Z,18.73
2023-02-18T13:57:14.729Z,18.78
2023-02-18T13:59:50.727Z,18.90
2023-02-18T14:02:20.560Z,18.95
2023-02-18T14:04:51.438Z,19.01
2023-02-18T14:07:33.747Z,19.00
2023-02-18T14:10:02.713Z,19.02
2023-02-18T14:12:37.683Z,19.04
2023-02-18T14:15:19.574Z,19.11
2023-02-18T14:18:14.178Z,19.02
2023-02-18T14:20:41.008Z,19.01
2023-02-18T14:23:20.101Z,18.96
2023-02-18T14:26:05.878Z,18.89
2023-02-18T14:28:38.559Z,18.80
2023-02-18T14:31:06.958Z,18.89
2023-02-18T14:33:37.062Z,18.89
2023-02-18T14:36:29.552Z,18.98
2023-02-18T14:39:35.993Z,18.98
2023-02-18T14:42:15.637Z,18.97
2023-02-18T14:45:05.671Z,18.98
2023-02-18T14:48:02.966Z,18.99
2023-02-18T14:50:37.077Z,18.93
2023-02-18T14:53:07.523Z,18.87
2023-02-18T14:55:41.170Z,18.85
2023-02-18T14:58:21.596Z,18.91
2023-02-18T15:00:48.349Z,18.86
2023-02-18T15:03:20.335Z,18.89
2023-02-18T15:05:47.471Z,18.88
2023-02-18T15:08:22.852Z,18.76
2023-02-18T15:11:04.381Z,18.75
2023-02-18T15:13:34.797Z,18.79
2023-02-18T15:16:06.306Z,18.80
2023-02-18T15:18:45.163Z,18.75
2023-02-18T15:21:24.669Z,18.76
2023-02-18T15:23:51.911Z,18.75
2023-02-18T15:26:18.768Z,18.71
2023-02-18T15:29:01.728Z,18.70
2023-02-18T15:31:31.554Z,18.75
2023-02-18T15:33:59.174Z,18.78
2023-02-18T15:36:27.307Z,18.80
2023-02-18T15:38:56.935Z,18.72
2023-02-18T15:41:24.057Z,18.71
2023-02-18T15:44:03.850Z,18.78
2023-02-18T15:46:31.967Z,18.82
2023-02-18T15:48:59.598Z,18.84
2023-02-18T15:51:30.028Z,18.83
2023-02-18T15:54:03.840Z,18.85
2023-02-18T15:56:34.534Z,18.91
2023-02-18T15:59:14.386Z,18.89
2023-02-18T16:01:41.289Z,18.91
2023-02-18T16:04:09.006Z,18.88
2023-02-18T16:06:39.571Z,18.86
2023-02-18T16:09:24.240Z,18.96
2023-02-18T16:12:02.109Z,18.96
2023-02-18T16:14:34.456Z,18.91
2023-02-18T16:17:10.427Z,18.91
2023-02-18T16:20:05.193Z,18.99
2023-02-18T16:22:43.177Z,18.97
2023-02-18T16:25:26.080Z,19.01
2023-02-18T16:28:03.380Z,19.01
2023-02-18T16:30:33.175Z,19.03
2023-02-18T16:33:00.706Z,19.02
2023-02-18T16:35:40.511Z,18.96
2023-02-18T16:38:22.059Z,18.94
2023-02-18T16:40:49.695Z,18.91
2023-02-18T16:43:22.841Z,18.87
2023-02-18T16:45:53.167Z,18.83
2023-02-18T16:48:27.963Z,18.82
2023-02-18T16:50:54.987Z,18.79
2023-02-18T16:53:21.949Z,18.75
2023-02-18T16:55:50.930Z,18.71
2023-02-18T16:58:17.917Z,18.70
2023-02-18T17:00:46.267Z,18.65
2023-02-18T17:03:13.702Z,18.59
2023-02-18T17:05:41.226Z,18.53
2023-02-18T17:08:27.275Z,18.43
2023-02-18T17:10:57.590Z,18.35
2023-02-18T17:13:27.811Z,18.29
2023-02-18T17:15:57.263Z,18.21
2023-02-18T17:18:25.016Z,18.09
2023-02-18T17:20:53.368Z,17.99
2023-02-18T17:23:23.027Z,17.84
2023-02-18T17:25:52.180Z,17.73
2023-02-18T17:28:19.371Z,17.58
2023-02-18T17:30:49.342Z,17.55
2023-02-18T17:33:18.695Z,17.47
2023-02-18T17:35:46.111Z,17.38
2023-02-18T17:38:18.769Z,17.34
2023-02-18T17:40:45.746Z,17.23
2023-02-18T17:43:14.851Z,17.23
2023-02-18T17:46:00.277Z,17.18
2023-02-18T17:48:28.336Z,17.09
2023-02-18T17:50:55.665Z,17.07
2023-02-18T17:53:22.774Z,17.04
2023-02-18T17:55:50.585Z,17.01
2023-02-18T17:58:17.684Z,16.99
2023-02-18T18:00:48.824Z,16.96
2023-02-18T18:03:16.348Z,16.93
2023-02-18T18:05:48.081Z,16.89
2023-02-18T18:08:16.136Z,16.82
2023-02-18T18:10:51.755Z,16.81
2023-02-18T18:13:32.325Z,16.78
2023-02-18T18:15:59.305Z,16.73
2023-02-18T18:18:26.989Z,16.71
2023-02-18T18:20:57.874Z,16.62
2023-02-18T18:23:24.738Z,16.59
2023-02-18T18:25:57.550Z,16.55
2023-02-18T18:28:26.626Z,16.48
2023-02-18T18:30:55.631Z,16.43
2023-02-18T18:33:31.266Z,16.42
2023-02-18T18:36:00.557Z,16.38
2023-02-18T18:38:28.720Z,16.38
2023-02-18T18:40:55.881Z,16.37
2023-02-18T18:43:32.934Z,16.36
2023-02-18T18:46:00.434Z,16.32
2023-02-18T18:48:27.634Z,16.28
2023-02-18T18:50:54.973Z,16.24
2023-02-18T18:53:33.069Z,16.22
2023-02-18T18:56:04.891Z,16.13
2023-02-18T18:58:32.199Z,16.08
2023-02-18T19:01:04.256Z,16.07
2023-02-18T19:03:31.572Z,16.02
2023-02-18T19:06:01.357Z,15.98
2023-02-18T19:08:32.390Z,15.98
2023-02-18T19:10:59.206Z,15.97
2023-02-18T19:13:30.525Z,15.95
2023-02-18T19:16:22.745Z,15.95
2023-02-18T19:18:50.320Z,15.91
2023-02-18T19:21:17.245Z,15.91
2023-02-18T19:23:44.517Z,15.88
2023-02-18T19:26:12.816Z,15.85
2023-02-18T19:28:39.595Z,15.80
2023-02-18T19:31:09.976Z,15.77
2023-02-18T19:33:39.185Z,15.77
2023-02-18T19:36:10.979Z,15.65
2023-02-18T19:38:37.957Z,15.43
2023-02-18T19:41:17.127Z,15.37
2023-02-18T19:43:46.560Z,15.35
2023-02-18T19:46:23.036Z,15.25
2023-02-18T19:48:59.974Z,15.27
2023-02-18T19:51:26.954Z,15.26
2023-02-18T19:53:54.537Z,15.21
2023-02-18T19:56:21.470Z,15.21
2023-02-18T19:58:48.270Z,15.03
2023-02-18T20:01:16.818Z,14.94
2023-02-18T20:03:44.275Z,15.02
2023-02-18T20:06:18.636Z,15.04
2023-02-18T20:08:46.105Z,15.03
2023-02-18T20:11:22.822Z,15.01
2023-02-18T20:13:49.818Z,14.98
2023-02-18T20:16:16.606Z,14.96
2023-02-18T20:18:43.522Z,14.89
2023-02-18T20:21:12.302Z,14.86
2023-02-18T20:23:40.443Z,14.86
2023-02-18T20:26:12.105Z,14.75
2023-02-18T20:28:38.941Z,14.59
2023-02-18T20:31:11.560Z,14.52
2023-02-18T20:33:39.279Z,14.53
2023-02-18T20:36:08.449Z,14.47
2023-02-18T20:38:36.994Z,14.33
2023-02-18T20:41:11.948Z,14.21
2023-02-18T20:43:40.236Z,14.24
2023-02-18T20:46:13.194Z,14.34
2023-02-18T20:48:48.834Z,14.33
2023-02-18T20:51:18.223Z,14.37
2023-02-18T20:53:46.826Z,14.29
2023-02-18T20:56:14.796Z,14.30
2023-02-18T20:58:41.704Z,14.34
2023-02-18T21:01:13.161Z,14.34
2023-02-18T21:03:41.073Z,14.33
2023-02-18T21:06:10.848Z,14.35
2023-02-18T21:08:40.564Z,14.32
2023-02-18T21:11:12.042Z,14.30
2023-02-18T21:13:40.465Z,14.36
2023-02-18T21:16:10.595Z,14.35
2023-02-18T21:18:43.618Z,14.31
2023-02-18T21:21:16.673Z,14.33
2023-02-18T21:23:53.097Z,14.35
2023-02-18T21:26:25.488Z,14.29
2023-02-18T21:28:58.905Z,14.26
2023-02-18T21:31:53.711Z,14.25
2023-02-18T21:34:22.165Z,14.21
2023-02-18T21:36:57.867Z,14.19
2023-02-18T21:39:27.093Z,14.19
2023-02-18T21:41:53.963Z,14.14
2023-02-18T21:44:25.018Z,14.13
2023-02-18T21:46:56.875Z,14.12
2023-02-18T21:49:24.859Z,14.13
2023-02-18T21:51:57.965Z,14.11
2023-02-18T21:54:31.319Z,14.07
2023-02-18T21:57:03.854Z,14.07
2023-02-18T21:59:37.286Z,14.04
2023-02-18T22:02:19.096Z,14.03
2023-02-18T22:04:52.706Z,14.02
2023-02-18T22:07:25.580Z,14.01
2023-02-18T22:09:55.466Z,14.01
2023-02-18T22:12:24.093Z,13.92
2023-02-18T22:14:50.934Z,13.90
2023-02-18T22:17:33.991Z,13.88
2023-02-18T22:20:01.107Z,13.88
2023-02-18T22:22:37.341Z,13.86
2023-02-18T22:25:04.743Z,13.83
2023-02-18T22:27:31.602Z,13.79
2023-02-18T22:29:58.991Z,13.79
2023-02-18T22:32:35.399Z,13.67
2023-02-18T22:35:07.824Z,13.70
2023-02-18T22:37:43.718Z,13.71
2023-02-18T22:40:14.205Z,13.65
2023-02-18T22:42:41.170Z,13.61
2023-02-18T22:45:08.452Z,13.54
2023-02-18T22:47:37.005Z,13.50
2023-02-18T22:50:04.132Z,13.52
2023-02-18T22:52:30.913Z,13.37
2023-02-18T22:54:57.635Z,13.46
2023-02-18T22:57:24.416Z,13.49
2023-02-18T22:59:52.319Z,13.20
2023-02-18T23:02:21.203Z,13.34
2023-02-18T23:04:47.975Z,13.22
2023-02-18T23:07:14.815Z,13.23
2023-02-18T23:09:41.785Z,13.19
2023-02-18T23:12:08.588Z,13.15
2023-02-18T23:14:35.382Z,12.94
2023-02-18T23:17:13.792Z,13.08
2023-02-18T23:19:41.610Z,13.11
2023-02-18T23:22:16.285Z,13.07
2023-02-18T23:24:46.959Z,13.01
2023-02-18T23:27:15.420Z,13.05
2023-02-18T23:29:42.636Z,12.98
2023-02-18T23:32:14.215Z,12.90
2023-02-18T23:34:41.178Z,12.82
2023-02-18T23:37:08.444Z,12.80
2023-02-18T23:39:35.708Z,12.83
2023-02-18T23:42:03.588Z,12.62
2023-02-18T23:44:30.434Z,12.55
2023-02-18T23:46:57.247Z,12.68
2023-02-18T23:49:25.903Z,12.72
2023-02-18T23:51:54.756Z,12.79
2023-02-18T23:54:24.513Z,12.84
2023-02-18T23:56:54.103Z,12.84
2023-02-18T23:59:20.919Z,12.88
